Time;durP1;ratioP1;P1;durP2;ratioP2;P2;SDS_P1;SDS_P2;PMS_P1;PMS_P2;Temp;Humidity;BMP_temperature;BMP_pressure;BME280_temperature;BME280_humidity;BME280_pressure;Samples;Min_cycle;Max_cycle;Signal;HPM_P1;HPM_P2
2023/09/01 00:01:43;;;;;;;5.77;3.13;;;14.50;99.90;;;;;;4843639;29;20288;-82
2023/09/01 00:04:09;;;;;;;6.50;3.40;;;14.50;99.90;;;;;;4843878;29;20188;-82
2023/09/01 00:06:34;;;;;;;6.97;3.47;;;14.50;99.90;;;;;;4844641;29;20184;-82
2023/09/01 00:09:00;;;;;;;4.40;4.00;;;14.50;99.90;;;;;;4843416;29;20221;-82
2023/09/01 00:11:25;;;;;;;6.80;3.20;;;14.50;99.90;;;;;;4843599;29;20235;-82
2023/09/01 00:13:51;;;;;;;4.43;3.47;;;14.50;99.90;;;;;;4843867;29;20694;-83
2023/09/01 00:16:16;;;;;;;5.80;3.20;;;14.50;99.90;;;;;;4843631;29;20265;-82
2023/09/01 00:18:42;;;;;;;4.63;3.10;;;14.50;99.90;;;;;;4845930;29;20205;-82
2023/09/01 00:21:08;;;;;;;7.07;3.13;;;14.50;99.90;;;;;;4846149;29;20275;-82
2023/09/01 00:23:34;;;;;;;6.40;3.43;;;14.50;99.90;;;;;;4847244;29;20189;-82
2023/09/01 00:26:00;;;;;;;5.00;3.00;;;14.50;99.90;;;;;;4846932;29;20429;-82
2023/09/01 00:28:26;;;;;;;6.60;3.30;;;14.50;99.90;;;;;;4846923;29;20240;-82
2023/09/01 00:30:59;;;;;;;6.03;3.47;;;14.50;99.90;;;;;;4847364;29;20832;-82
2023/09/01 00:33:29;;;;;;;8.60;3.50;;;14.60;99.90;;;;;;4845732;29;20942;-83
2023/09/01 00:35:56;;;;;;;4.30;3.23;;;14.50;99.90;;;;;;4846972;29;20430;-82
2023/09/01 00:38:22;;;;;;;6.20;3.03;;;14.60;99.90;;;;;;4846950;29;20391;-82
2023/09/01 00:40:48;;;;;;;3.60;3.10;;;14.60;99.90;;;;;;4846472;29;20536;-82
2023/09/01 00:43:14;;;;;;;7.03;3.40;;;14.70;99.90;;;;;;4846725;29;20487;-82
2023/09/01 00:45:41;;;;;;;5.23;2.63;;;14.70;99.90;;;;;;4846326;29;20923;-82
2023/09/01 00:48:08;;;;;;;6.77;3.27;;;14.70;99.90;;;;;;4845770;29;20544;-82
2023/09/01 00:50:36;;;;;;;5.17;3.40;;;14.70;99.90;;;;;;4846376;29;20493;-83
2023/09/01 00:53:04;;;;;;;5.30;2.77;;;14.70;99.90;;;;;;4846345;29;20460;-83
2023/09/01 00:55:30;;;;;;;4.57;3.23;;;14.80;99.90;;;;;;4846747;29;20561;-82
2023/09/01 00:57:56;;;;;;;6.73;3.10;;;14.80;99.90;;;;;;4846418;29;20448;-82
2023/09/01 01:00:21;;;;;;;2.53;2.30;;;14.90;99.90;;;;;;4846627;29;20443;-82
2023/09/01 01:02:48;;;;;;;7.23;3.20;;;14.80;99.90;;;;;;4846101;29;20185;-82
2023/09/01 01:05:15;;;;;;;5.37;2.83;;;14.90;99.90;;;;;;4846582;29;20203;-83
2023/09/01 01:08:12;;;;;;;3.53;2.53;;;14.90;99.90;;;;;;4846191;29;20433;-83
2023/09/01 01:10:46;;;;;;;2.53;2.20;;;14.90;99.90;;;;;;4846140;29;20444;-83
2023/09/01 01:13:16;;;;;;;6.00;2.70;;;14.90;99.90;;;;;;4846367;29;20442;-83
2023/09/01 01:15:43;;;;;;;3.60;2.43;;;14.90;99.90;;;;;;4846340;29;20410;-83
2023/09/01 01:18:13;;;;;;;4.67;2.63;;;14.90;99.90;;;;;;4846469;29;20454;-82
2023/09/01 01:20:44;;;;;;;5.60;2.30;;;14.90;99.90;;;;;;4846347;29;20450;-82
2023/09/01 01:23:17;;;;;;;4.27;2.70;;;14.90;99.90;;;;;;4846426;29;20432;-82
2023/09/01 01:25:52;;;;;;;5.90;2.57;;;14.90;99.90;;;;;;4845914;29;20421;-82
2023/09/01 01:28:19;;;;;;;4.77;2.50;;;14.90;99.90;;;;;;4845698;29;20476;-82
2023/09/01 01:30:47;;;;;;;3.30;2.13;;;14.90;99.90;;;;;;4845618;29;20465;-82
2023/09/01 01:33:21;;;;;;;4.10;2.50;;;14.90;99.90;;;;;;4846536;29;20760;-82
2023/09/01 01:36:06;;;;;;;3.47;2.77;;;14.90;99.90;;;;;;4846101;29;20425;-82
2023/09/01 01:38:33;;;;;;;4.60;2.77;;;14.80;99.90;;;;;;4852905;29;20421;-82
2023/09/01 01:41:14;;;;;;;5.70;2.80;;;14.80;99.90;;;;;;4846658;29;20397;-82
2023/09/01 01:43:42;;;;;;;3.37;2.80;;;14.80;99.90;;;;;;4846511;29;20414;-82
2023/09/01 01:46:08;;;;;;;5.37;3.07;;;14.80;99.90;;;;;;4846345;29;20418;-82
2023/09/01 01:48:37;;;;;;;6.57;2.40;;;14.70;99.90;;;;;;4846178;29;20979;-82
2023/09/01 01:51:05;;;;;;;3.20;2.67;;;14.70;99.90;;;;;;4846174;29;20204;-81
2023/09/01 01:53:35;;;;;;;4.30;3.60;;;14.70;99.90;;;;;;4845774;29;20429;-82
2023/09/01 01:56:02;;;;;;;3.60;2.30;;;14.70;99.90;;;;;;4845952;29;20415;-82
2023/09/01 01:58:28;;;;;;;5.60;2.67;;;14.70;99.90;;;;;;4844895;29;20445;-82
2023/09/01 02:00:53;;;;;;;2.90;2.60;;;14.60;99.90;;;;;;4845781;29;20400;-82
2023/09/01 02:03:19;;;;;;;3.80;2.43;;;14.60;99.90;;;;;;4846142;29;20213;-82
2023/09/01 02:05:44;;;;;;;5.67;2.87;;;14.60;99.90;;;;;;4845404;29;20288;-82
2023/09/01 02:08:10;;;;;;;3.27;2.60;;;14.60;99.90;;;;;;4844263;29;20196;-82
2023/09/01 02:10:35;;;;;;;5.73;2.83;;;14.60;99.90;;;;;;4845498;29;20220;-82
2023/09/01 02:13:03;;;;;;;4.70;2.77;;;14.60;99.90;;;;;;4845954;29;20634;-82
2023/09/01 02:15:30;;;;;;;5.90;3.23;;;14.60;99.90;;;;;;4846023;29;20263;-85
2023/09/01 02:17:57;;;;;;;2.87;2.60;;;14.60;99.90;;;;;;4847799;29;20458;-82
2023/09/01 02:20:23;;;;;;;7.33;3.20;;;14.60;99.90;;;;;;4847424;29;20530;-81
2023/09/01 02:22:50;;;;;;;3.97;3.23;;;14.50;99.90;;;;;;4846711;29;20469;-82
2023/09/01 02:25:17;;;;;;;4.83;2.87;;;14.50;99.90;;;;;;4845359;29;20458;-82
2023/09/01 02:27:43;;;;;;;4.50;2.60;;;14.50;99.90;;;;;;4845329;29;20481;-81
2023/09/01 02:30:10;;;;;;;4.97;3.37;;;14.60;99.90;;;;;;4845500;29;20932;-81
2023/09/01 02:32:37;;;;;;;3.23;2.77;;;14.50;99.90;;;;;;4845972;29;20430;-82
2023/09/01 02:35:06;;;;;;;10.20;3.90;;;14.50;99.90;;;;;;4845076;29;20422;-81
2023/09/01 02:37:32;;;;;;;7.20;2.70;;;14.50;99.90;;;;;;4844733;29;20946;-82
2023/09/01 02:39:58;;;;;;;5.10;2.97;;;14.50;99.90;;;;;;4844718;29;20425;-82
2023/09/01 02:42:23;;;;;;;4.40;3.07;;;14.50;99.90;;;;;;4844706;29;20783;-81
2023/09/01 02:44:49;;;;;;;3.83;2.73;;;14.60;99.90;;;;;;4844945;29;20200;-81
2023/09/01 02:47:15;;;;;;;4.03;2.70;;;14.60;99.90;;;;;;4845079;29;20257;-81
2023/09/01 02:49:40;;;;;;;4.37;2.80;;;14.50;99.90;;;;;;4844522;29;20221;-82
2023/09/01 02:52:06;;;;;;;5.93;2.70;;;14.60;99.90;;;;;;4844555;29;20271;-81
2023/09/01 02:54:32;;;;;;;4.23;3.10;;;14.50;99.90;;;;;;4844862;29;20188;-85
2023/09/01 02:56:58;;;;;;;3.50;2.63;;;14.50;99.90;;;;;;4844958;29;20181;-82
2023/09/01 02:59:23;;;;;;;3.73;2.60;;;14.50;99.90;;;;;;4845108;29;20541;-81
2023/09/01 03:01:49;;;;;;;4.53;2.60;;;14.50;99.90;;;;;;4844669;29;20649;-81
2023/09/01 03:04:15;;;;;;;4.70;3.20;;;14.50;99.90;;;;;;4844786;29;20185;-82
2023/09/01 03:06:40;;;;;;;8.60;2.83;;;14.50;99.90;;;;;;4844620;29;20421;-82
2023/09/01 03:09:09;;;;;;;3.43;2.70;;;14.50;99.90;;;;;;4845228;29;20216;-81
2023/09/01 03:11:35;;;;;;;6.13;3.70;;;14.50;99.90;;;;;;4844921;29;20189;-82
2023/09/01 03:14:00;;;;;;;6.57;3.07;;;14.50;99.90;;;;;;4844762;29;20433;-81
2023/09/01 03:16:30;;;;;;;3.50;3.20;;;14.50;99.90;;;;;;4843825;29;20319;-81
2023/09/01 03:18:59;;;;;;;6.60;3.20;;;14.50;99.90;;;;;;4844697;29;20213;-82
2023/09/01 03:21:26;;;;;;;6.50;2.90;;;14.40;99.90;;;;;;4844663;29;20422;-81
2023/09/01 03:23:52;;;;;;;4.20;3.23;;;14.40;99.90;;;;;;4845008;29;20460;-81
2023/09/01 03:26:19;;;;;;;4.43;2.77;;;14.40;99.90;;;;;;4844682;29;20438;-81
2023/09/01 03:28:45;;;;;;;4.30;2.90;;;14.50;99.90;;;;;;4844092;29;20486;-81
2023/09/01 03:31:11;;;;;;;3.83;3.07;;;14.50;99.90;;;;;;4844290;29;20769;-81
2023/09/01 03:33:36;;;;;;;3.07;2.83;;;14.40;99.90;;;;;;4843774;29;20245;-82
2023/09/01 03:36:07;;;;;;;4.50;2.87;;;14.40;99.90;;;;;;4844277;29;20426;-81
2023/09/01 03:38:33;;;;;;;3.73;2.90;;;14.50;99.90;;;;;;4844437;29;20673;-81
2023/09/01 03:41:01;;;;;;;3.37;2.73;;;14.40;99.90;;;;;;4844546;29;20430;-81
2023/09/01 03:43:27;;;;;;;3.33;2.90;;;14.40;99.90;;;;;;4844241;29;20227;-81
2023/09/01 03:45:52;;;;;;;3.77;2.93;;;14.40;99.90;;;;;;4844055;29;20438;-81
2023/09/01 03:48:18;;;;;;;8.93;3.10;;;14.50;99.90;;;;;;4844195;29;20216;-81
2023/09/01 03:50:43;;;;;;;2.93;2.63;;;14.50;99.90;;;;;;4844073;29;20201;-81
2023/09/01 03:53:09;;;;;;;4.57;2.97;;;14.50;99.90;;;;;;4844266;29;20188;-81
2023/09/01 03:55:35;;;;;;;4.30;3.03;;;14.50;99.90;;;;;;4843895;29;20184;-86
2023/09/01 03:58:00;;;;;;;5.80;2.80;;;14.50;99.90;;;;;;4843987;29;20194;-81
2023/09/01 04:00:26;;;;;;;4.30;3.23;;;14.50;99.90;;;;;;4844033;29;20660;-82
2023/09/01 04:02:52;;;;;;;3.60;2.60;;;14.50;99.90;;;;;;4842703;29;20193;-81
2023/09/01 04:05:18;;;;;;;5.67;2.30;;;14.60;99.90;;;;;;4843940;29;20434;-81
2023/09/01 04:07:43;;;;;;;3.90;2.90;;;14.50;99.90;;;;;;4843637;29;20215;-82
2023/09/01 04:10:09;;;;;;;3.63;2.80;;;14.60;99.90;;;;;;4843881;29;20223;-81
2023/09/01 04:12:35;;;;;;;5.63;2.80;;;14.60;99.90;;;;;;4843997;29;20654;-81
2023/09/01 04:15:00;;;;;;;4.00;2.27;;;14.60;99.90;;;;;;4843526;29;20433;-81
2023/09/01 04:17:27;;;;;;;2.90;2.60;;;14.60;99.90;;;;;;4844378;29;20193;-82
2023/09/01 04:19:53;;;;;;;2.93;2.63;;;14.60;99.90;;;;;;4843589;29;20284;-82
2023/09/01 04:22:19;;;;;;;4.33;2.63;;;14.70;99.90;;;;;;4843989;29;20438;-82
2023/09/01 04:24:45;;;;;;;4.10;3.23;;;14.70;99.90;;;;;;4843562;29;20942;-82
2023/09/01 04:27:10;;;;;;;3.90;2.93;;;14.60;99.90;;;;;;4843705;29;20192;-84
2023/09/01 04:29:38;;;;;;;5.50;3.03;;;14.60;99.90;;;;;;4843086;29;20492;-82
2023/09/01 04:32:04;;;;;;;3.33;3.03;;;14.60;99.90;;;;;;4843906;29;20197;-81
2023/09/01 04:34:29;;;;;;;5.60;3.10;;;14.70;99.90;;;;;;4843611;29;20422;-82
2023/09/01 04:36:55;;;;;;;5.93;3.27;;;14.70;99.90;;;;;;4843538;29;20646;-82
2023/09/01 04:39:20;;;;;;;3.80;3.40;;;14.80;99.90;;;;;;4843787;29;20200;-81
2023/09/01 04:41:46;;;;;;;5.23;3.20;;;14.80;99.90;;;;;;4843373;29;20729;-82
2023/09/01 04:44:13;;;;;;;8.47;3.30;;;14.80;99.90;;;;;;4843956;29;20608;-82
2023/09/01 04:46:39;;;;;;;4.80;2.90;;;14.80;99.90;;;;;;4843553;29;20615;-83
2023/09/01 04:49:05;;;;;;;3.70;3.10;;;14.80;99.90;;;;;;4842426;29;20576;-82
2023/09/01 04:51:30;;;;;;;4.70;3.10;;;14.80;99.90;;;;;;4843547;29;20216;-82
2023/09/01 04:53:56;;;;;;;3.20;3.00;;;14.80;99.90;;;;;;4843092;29;20185;-82
2023/09/01 04:56:21;;;;;;;6.07;3.60;;;14.80;99.90;;;;;;4843406;29;20672;-81
2023/09/01 04:58:47;;;;;;;6.10;3.20;;;14.80;99.90;;;;;;4843400;29;20563;-83
2023/09/01 05:01:12;;;;;;;4.00;3.00;;;14.90;99.90;;;;;;4843248;29;20195;-82
2023/09/01 05:03:38;;;;;;;7.93;2.73;;;14.80;99.90;;;;;;4844007;29;20219;-82
2023/09/01 05:06:05;;;;;;;4.03;2.80;;;14.90;99.90;;;;;;4846472;29;20188;-82
2023/09/01 05:08:30;;;;;;;3.40;2.80;;;14.90;99.90;;;;;;4846649;29;20535;-82
2023/09/01 05:10:56;;;;;;;3.33;3.03;;;14.90;99.90;;;;;;4846284;29;20502;-82
2023/09/01 05:13:22;;;;;;;3.00;2.80;;;15.00;99.90;;;;;;4846588;29;20200;-83
2023/09/01 05:15:51;;;;;;;8.33;3.10;;;15.00;99.90;;;;;;4846163;29;20209;-82
2023/09/01 05:18:16;;;;;;;3.00;2.70;;;15.10;99.90;;;;;;4846363;29;20219;-82
2023/09/01 05:20:43;;;;;;;3.80;2.87;;;15.10;99.90;;;;;;4846000;29;20430;-83
2023/09/01 05:23:08;;;;;;;4.80;2.87;;;15.10;99.90;;;;;;4846381;29;20197;-82
2023/09/01 05:25:34;;;;;;;4.50;3.13;;;15.10;99.90;;;;;;4846315;29;20949;-82
2023/09/01 05:27:59;;;;;;;10.33;3.17;;;15.10;99.90;;;;;;4844387;29;20387;-82
2023/09/01 05:30:25;;;;;;;4.87;2.70;;;15.10;99.90;;;;;;4845009;29;20216;-83
2023/09/01 05:32:50;;;;;;;7.20;4.17;;;15.10;99.90;;;;;;4845542;29;20185;-82
2023/09/01 05:35:16;;;;;;;4.73;3.43;;;15.20;99.90;;;;;;4845976;29;20673;-82
2023/09/01 05:37:42;;;;;;;5.63;3.40;;;15.20;99.90;;;;;;4845038;29;20207;-83
2023/09/01 05:40:08;;;;;;;5.03;3.30;;;15.20;99.90;;;;;;4845995;29;20272;-82
2023/09/01 05:42:33;;;;;;;4.07;3.40;;;15.30;99.90;;;;;;4845564;29;20192;-83
2023/09/01 05:44:59;;;;;;;6.17;3.70;;;15.30;99.90;;;;;;4845372;29;20418;-82
2023/09/01 05:47:24;;;;;;;4.63;3.70;;;15.30;99.90;;;;;;4845903;29;20181;-82
2023/09/01 05:49:50;;;;;;;4.50;3.17;;;15.40;99.90;;;;;;4845602;29;20220;-82
2023/09/01 05:52:16;;;;;;;4.83;3.60;;;15.40;99.90;;;;;;4845715;29;20220;-82
2023/09/01 05:54:42;;;;;;;5.53;3.17;;;15.50;99.90;;;;;;4845394;29;20598;-86
2023/09/01 05:57:08;;;;;;;3.00;2.70;;;15.50;99.90;;;;;;4845631;29;20426;-83
2023/09/01 05:59:33;;;;;;;6.40;3.13;;;15.50;99.90;;;;;;4846008;29;20549;-82
2023/09/01 06:01:59;;;;;;;4.03;3.17;;;15.50;99.90;;;;;;4845965;29;20246;-82
2023/09/01 06:04:25;;;;;;;4.60;2.97;;;15.60;99.90;;;;;;4846091;29;20548;-83
2023/09/01 06:06:50;;;;;;;4.90;3.23;;;15.70;99.90;;;;;;4845434;29;20393;-83
2023/09/01 06:09:16;;;;;;;3.80;3.10;;;15.80;99.90;;;;;;4845444;29;20212;-82
2023/09/01 06:11:42;;;;;;;3.40;2.97;;;15.80;99.90;;;;;;4845333;29;20223;-82
2023/09/01 06:14:07;;;;;;;4.53;2.83;;;15.80;99.90;;;;;;4845207;29;20185;-82
2023/09/01 06:16:33;;;;;;;5.80;2.80;;;15.80;99.90;;;;;;4844895;29;20185;-82
2023/09/01 06:19:00;;;;;;;4.47;2.83;;;15.90;99.90;;;;;;4844884;29;20203;-83
2023/09/01 06:21:26;;;;;;;3.17;2.60;;;16.00;99.90;;;;;;4845145;29;20779;-82
2023/09/01 06:23:52;;;;;;;4.53;2.63;;;16.00;99.90;;;;;;4844957;29;20425;-83
2023/09/01 06:26:18;;;;;;;5.10;2.77;;;16.10;99.90;;;;;;4845190;29;20435;-83
2023/09/01 06:28:45;;;;;;;5.97;2.87;;;16.20;99.90;;;;;;4844973;29;20306;-82
2023/09/01 06:31:13;;;;;;;4.90;2.77;;;16.20;99.90;;;;;;4844996;29;20775;-82
2023/09/01 06:33:42;;;;;;;2.73;2.43;;;16.20;99.90;;;;;;4843919;29;20402;-82
2023/09/01 06:36:09;;;;;;;3.83;2.33;;;16.20;99.90;;;;;;4844848;29;20495;-83
2023/09/01 06:38:35;;;;;;;3.10;2.30;;;16.30;99.90;;;;;;4844744;29;20426;-82
2023/09/01 06:41:03;;;;;;;4.23;2.80;;;16.40;99.90;;;;;;4844516;29;20431;-82
2023/09/01 06:43:31;;;;;;;4.20;2.80;;;16.40;99.90;;;;;;4844553;29;20260;-87
2023/09/01 06:45:58;;;;;;;6.30;2.93;;;16.40;99.90;;;;;;4844183;29;20396;-87
2023/09/01 06:48:24;;;;;;;7.20;3.80;;;16.40;99.90;;;;;;4844138;29;20481;-87
2023/09/01 06:50:49;;;;;;;6.50;3.27;;;16.30;99.90;;;;;;4843751;29;20480;-87
2023/09/01 06:53:15;;;;;;;6.63;3.10;;;16.40;99.90;;;;;;4843952;29;20434;-87
2023/09/01 06:55:40;;;;;;;5.60;3.60;;;16.40;99.90;;;;;;4843903;29;20185;-87
2023/09/01 06:58:06;;;;;;;3.53;2.87;;;16.40;99.90;;;;;;4843698;29;20197;-86
2023/09/01 07:00:32;;;;;;;4.90;3.30;;;16.50;99.90;;;;;;4843884;29;20222;-87
2023/09/01 07:02:57;;;;;;;4.07;3.00;;;16.50;99.90;;;;;;4843525;29;20260;-87
2023/09/01 07:05:23;;;;;;;3.83;2.80;;;16.60;99.90;;;;;;4844107;29;20392;-87
2023/09/01 07:07:50;;;;;;;3.60;2.87;;;16.60;99.90;;;;;;4843405;29;20184;-87
2023/09/01 07:10:16;;;;;;;3.87;2.70;;;16.60;99.90;;;;;;4845320;29;20245;-87
2023/09/01 07:12:42;;;;;;;4.27;2.63;;;16.60;99.90;;;;;;4846959;29;20418;-87
2023/09/01 07:15:08;;;;;;;3.83;2.60;;;16.60;99.90;;;;;;4843791;29;20932;-87
2023/09/01 07:17:34;;;;;;;4.40;2.77;;;16.60;99.90;;;;;;4843970;29;20729;-86
2023/09/01 07:19:59;;;;;;;2.83;1.93;;;16.70;99.90;;;;;;4843677;29;20422;-87
2023/09/01 07:22:25;;;;;;;2.23;1.80;;;16.70;99.90;;;;;;4843825;29;20321;-86
2023/09/01 07:24:50;;;;;;;2.90;2.60;;;16.70;99.90;;;;;;4848084;29;20187;-86
2023/09/01 07:27:16;;;;;;;2.87;2.10;;;16.60;99.90;;;;;;4843630;29;20180;-85
2023/09/01 07:29:41;;;;;;;3.90;2.50;;;16.60;99.90;;;;;;4843888;29;20760;-83
2023/09/01 07:32:07;;;;;;;3.20;2.90;;;16.60;99.90;;;;;;4843450;29;20204;-85
2023/09/01 07:34:34;;;;;;;2.67;2.47;;;16.60;99.90;;;;;;4843658;29;20650;-85
2023/09/01 07:37:00;;;;;;;9.70;2.37;;;16.50;99.90;;;;;;4843428;29;20588;-87
2023/09/01 07:39:25;;;;;;;2.77;2.13;;;16.40;99.90;;;;;;4843371;29;20457;-87
2023/09/01 07:41:51;;;;;;;4.70;2.30;;;16.30;99.90;;;;;;4843557;29;20426;-89
2023/09/01 07:44:17;;;;;;;4.10;2.33;;;16.20;99.90;;;;;;4843495;29;20635;-88
2023/09/01 07:46:43;;;;;;;2.60;2.40;;;16.10;99.90;;;;;;4844082;29;20184;-91
2023/09/01 07:49:09;;;;;;;3.20;2.10;;;16.20;99.90;;;;;;4843542;29;20938;-91
2023/09/01 07:51:35;;;;;;;2.53;2.33;;;16.10;99.90;;;;;;4843414;29;20486;-94
2023/09/01 07:54:00;;;;;;;6.93;3.00;;;16.10;99.90;;;;;;4851921;29;20426;-96
2023/09/01 07:56:26;;;;;;;5.00;2.90;;;16.00;99.90;;;;;;4852774;29;20193;-93
2023/09/01 07:58:52;;;;;;;6.30;2.60;;;15.90;99.90;;;;;;4856576;29;20205;-95
2023/09/01 08:01:17;;;;;;;3.93;2.70;;;15.80;99.90;;;;;;4851042;29;20189;-96
2023/09/01 08:03:43;;;;;;;5.23;2.50;;;15.80;99.90;;;;;;4846266;29;20277;-89
2023/09/01 08:06:08;;;;;;;6.87;3.30;;;15.80;99.90;;;;;;4843512;29;20189;-92
2023/09/01 08:08:34;;;;;;;3.03;2.67;;;15.70;99.90;;;;;;4843858;29;20210;-90
2023/09/01 08:11:00;;;;;;;6.83;2.60;;;15.70;99.90;;;;;;4843109;29;20228;-88
2023/09/01 08:13:26;;;;;;;6.20;2.50;;;15.70;99.90;;;;;;4843700;29;20216;-88
2023/09/01 08:15:51;;;;;;;3.90;2.17;;;15.70;99.90;;;;;;4843550;29;20197;-87
2023/09/01 08:18:17;;;;;;;3.53;2.23;;;15.70;99.90;;;;;;4843711;29;20421;-88
2023/09/01 08:20:43;;;;;;;2.30;2.00;;;15.80;99.90;;;;;;4843242;29;20279;-88
2023/09/01 08:23:10;;;;;;;3.70;1.97;;;15.80;99.90;;;;;;4842844;29;20210;-87
2023/09/01 08:25:36;;;;;;;4.33;2.20;;;15.90;99.90;;;;;;4843260;29;20193;-88
2023/09/01 08:28:03;;;;;;;3.50;2.33;;;15.90;99.90;;;;;;4843265;29;20846;-86
2023/09/01 08:30:28;;;;;;;6.50;2.30;;;15.90;99.90;;;;;;4843923;29;20452;-87
2023/09/01 08:32:54;;;;;;;3.67;2.20;;;15.90;99.90;;;;;;4843078;29;20425;-86
2023/09/01 08:35:20;;;;;;;3.17;2.07;;;15.90;99.90;;;;;;4843474;29;20190;-87
2023/09/01 08:37:45;;;;;;;3.63;2.33;;;15.90;99.90;;;;;;4842915;29;20262;-88
2023/09/01 08:40:11;;;;;;;5.50;2.40;;;16.00;99.90;;;;;;4845672;29;20195;-88
2023/09/01 08:42:48;;;;;;;3.70;2.63;;;16.00;99.90;;;;;;4846642;29;20584;-88
2023/09/01 08:45:15;;;;;;;2.90;2.23;;;16.00;99.90;;;;;;4846602;29;20398;-87
2023/09/01 08:47:48;;;;;;;3.13;2.37;;;16.10;99.90;;;;;;4845686;29;20489;-88
2023/09/01 08:50:17;;;;;;;3.87;2.30;;;16.20;99.90;;;;;;4846335;29;20473;-87
2023/09/01 08:52:44;;;;;;;4.20;2.40;;;16.20;99.90;;;;;;4846395;29;20418;-88
2023/09/01 08:55:12;;;;;;;3.30;2.00;;;16.30;99.90;;;;;;4846207;29;20429;-88
2023/09/01 08:57:38;;;;;;;3.73;2.43;;;16.40;99.90;;;;;;4846361;29;20501;-88
2023/09/01 09:00:05;;;;;;;2.30;2.10;;;16.50;99.90;;;;;;4845970;29;20421;-88
2023/09/01 09:02:31;;;;;;;3.23;2.50;;;16.50;99.90;;;;;;4850034;29;20396;-89
2023/09/01 09:04:57;;;;;;;5.90;2.33;;;16.60;99.90;;;;;;4847590;29;20428;-89
2023/09/01 09:07:22;;;;;;;2.17;1.97;;;16.70;99.90;;;;;;4846322;29;20192;-88
2023/09/01 09:09:58;;;;;;;4.30;2.00;;;16.70;99.90;;;;;;4845893;29;20897;-88
2023/09/01 09:12:35;;;;;;;4.73;2.23;;;16.70;99.90;;;;;;4846195;29;20177;-89
2023/09/01 09:15:02;;;;;;;2.87;2.00;;;16.80;99.90;;;;;;4845832;29;20475;-89
2023/09/01 09:17:45;;;;;;;6.33;2.43;;;16.80;99.90;;;;;;4844842;29;20957;-92
2023/09/01 09:20:12;;;;;;;4.63;2.50;;;16.90;99.90;;;;;;4845963;29;20430;-92
2023/09/01 09:22:56;;;;;;;11.50;3.30;;;16.90;99.90;;;;;;4846068;29;20781;-92
2023/09/01 09:25:33;;;;;;;5.20;2.97;;;16.90;99.90;;;;;;4846434;29;20422;-92
2023/09/01 09:28:00;;;;;;;3.97;3.00;;;17.00;99.90;;;;;;4845253;29;21013;-90
2023/09/01 09:30:27;;;;;;;3.90;3.50;;;16.90;99.90;;;;;;4846322;29;20513;-89
2023/09/01 09:33:04;;;;;;;5.37;3.60;;;17.00;99.90;;;;;;4847016;29;20422;-91
2023/09/01 09:35:29;;;;;;;5.10;3.57;;;17.00;99.90;;;;;;4845656;29;20418;-92
2023/09/01 09:37:59;;;;;;;5.33;3.73;;;17.10;99.90;;;;;;4845444;29;20392;-90
2023/09/01 09:40:25;;;;;;;7.07;4.67;;;17.20;99.90;;;;;;4845698;29;20518;-91
2023/09/01 09:42:50;;;;;;;5.13;3.40;;;17.30;99.90;;;;;;4845820;29;20421;-91
2023/09/01 09:45:31;;;;;;;7.87;4.00;;;17.40;99.90;;;;;;4845782;29;20215;-93
2023/09/01 09:48:00;;;;;;;5.67;4.20;;;17.50;99.90;;;;;;4845880;29;20200;-91
2023/09/01 09:50:27;;;;;;;6.93;4.70;;;17.50;99.90;;;;;;4845458;29;20531;-92
2023/09/01 09:53:03;;;;;;;6.17;4.80;;;17.60;99.90;;;;;;4845602;29;20422;-94
2023/09/01 09:55:33;;;;;;;7.57;5.00;;;17.70;99.90;;;;;;4845806;29;20417;-94
2023/09/01 09:57:59;;;;;;;4.90;3.83;;;17.70;99.90;;;;;;4845177;29;20784;-92
2023/09/01 10:00:27;;;;;;;7.50;4.20;;;17.80;99.90;;;;;;4845449;29;20422;-91
2023/09/01 10:03:03;;;;;;;5.67;4.10;;;17.80;99.90;;;;;;4845074;29;20214;-90
2023/09/01 10:05:34;;;;;;;5.90;4.37;;;17.80;99.90;;;;;;4845478;29;20481;-91
2023/09/01 10:08:06;;;;;;;7.30;3.93;;;17.80;99.90;;;;;;4844985;29;20392;-90
2023/09/01 10:10:33;;;;;;;3.70;3.20;;;17.90;99.90;;;;;;4844989;29;20524;-93
2023/09/01 10:13:03;;;;;;;4.47;3.70;;;17.90;99.90;;;;;;4845090;29;20785;-92
2023/09/01 10:15:30;;;;;;;5.27;3.90;;;17.80;99.90;;;;;;4845230;29;20507;-92
2023/09/01 10:17:59;;;;;;;7.20;4.97;;;17.90;99.90;;;;;;4845537;29;20795;-93
2023/09/01 10:20:25;;;;;;;6.23;4.20;;;18.20;99.90;;;;;;4845199;29;20473;-93
2023/09/01 10:22:50;;;;;;;7.27;4.80;;;18.20;99.90;;;;;;4845300;29;20426;-94
2023/09/01 10:25:20;;;;;;;5.33;4.27;;;18.40;99.90;;;;;;4844859;29;20185;-94
2023/09/01 10:28:08;;;;;;;6.70;4.90;;;18.50;99.90;;;;;;4846683;29;20243;-95
2023/09/01 10:30:35;;;;;;;5.73;4.50;;;18.50;99.90;;;;;;4844385;29;20492;-94
2023/09/01 10:33:27;;;;;;;4.43;4.03;;;18.70;99.90;;;;;;4844756;29;20508;-94
2023/09/01 10:35:53;;;;;;;6.23;4.50;;;18.70;99.90;;;;;;4846126;29;20431;-95
2023/09/01 10:38:22;;;;;;;4.67;4.10;;;18.90;99.90;;;;;;4845624;29;20521;-95
2023/09/01 10:40:52;;;;;;;7.47;5.27;;;19.00;99.90;;;;;;4846439;29;20438;-93
2023/09/01 10:43:37;;;;;;;6.00;5.50;;;19.20;99.90;;;;;;4847633;29;20774;-96
2023/09/01 10:46:14;;;;;;;5.23;4.73;;;19.40;99.90;;;;;;4849191;29;20761;-96
2023/09/01 10:48:57;;;;;;;7.80;4.20;;;19.50;99.90;;;;;;4850462;29;20478;-96
2023/09/01 10:51:37;;;;;;;5.17;4.60;;;19.50;99.90;;;;;;4849668;29;20445;-96
2023/09/01 10:54:23;;;;;;;5.30;4.80;;;19.60;99.90;;;;;;4845943;29;20789;-92
2023/09/01 10:57:00;;;;;;;5.07;4.03;;;19.70;99.90;;;;;;4834169;29;20920;-95
2023/09/01 10:59:35;;;;;;;6.20;3.40;;;19.70;99.90;;;;;;4845012;29;20780;-92
2023/09/01 11:02:18;;;;;;;3.70;3.40;;;19.70;99.90;;;;;;4842534;29;20408;-91
2023/09/01 11:04:44;;;;;;;4.13;3.70;;;19.60;99.90;;;;;;4843750;29;20440;-92
2023/09/01 11:07:11;;;;;;;6.37;3.73;;;19.50;99.90;;;;;;4843387;29;20409;-92
2023/09/01 11:09:38;;;;;;;4.27;3.83;;;19.50;99.90;;;;;;4843778;29;20547;-92
2023/09/01 11:12:06;;;;;;;4.90;3.30;;;19.40;99.90;;;;;;4843620;29;20393;-91
2023/09/01 11:14:34;;;;;;;5.30;3.10;;;19.20;99.90;;;;;;4843716;29;20456;-91
2023/09/01 11:17:00;;;;;;;5.50;3.47;;;19.10;99.90;;;;;;4843895;29;20421;-91
2023/09/01 11:19:26;;;;;;;3.50;3.20;;;18.90;99.90;;;;;;4843587;29;20478;-92
2023/09/01 11:21:52;;;;;;;3.23;2.93;;;18.80;99.90;;;;;;4843546;29;20483;-92
2023/09/01 11:24:21;;;;;;;8.30;2.70;;;18.70;99.90;;;;;;4843526;29;20414;-91
2023/09/01 11:26:49;;;;;;;4.63;2.40;;;18.60;99.90;;;;;;4843383;29;20392;-91
2023/09/01 11:29:14;;;;;;;3.23;2.27;;;18.40;99.90;;;;;;4843313;29;20560;-91
2023/09/01 11:31:42;;;;;;;2.50;2.30;;;18.40;99.90;;;;;;4843502;29;20480;-91
2023/09/01 11:34:08;;;;;;;3.70;2.50;;;18.30;99.90;;;;;;4843029;29;20244;-90
2023/09/01 11:36:43;;;;;;;2.73;2.13;;;18.30;99.90;;;;;;4843573;29;20514;-91
2023/09/01 11:39:09;;;;;;;2.97;2.33;;;18.30;99.90;;;;;;4843373;29;20732;-91
2023/09/01 11:41:35;;;;;;;3.90;2.80;;;18.20;99.90;;;;;;4842712;29;20399;-93
2023/09/01 11:44:01;;;;;;;3.33;2.67;;;18.30;99.90;;;;;;4827368;29;20193;-91
2023/09/01 11:46:34;;;;;;;2.70;2.50;;;18.30;99.90;;;;;;4843420;29;20501;-91
2023/09/01 11:49:01;;;;;;;5.30;2.70;;;18.30;99.90;;;;;;4843400;29;20251;-90
2023/09/01 11:51:33;;;;;;;4.77;2.40;;;18.40;99.90;;;;;;4849768;29;20445;-90
2023/09/01 11:53:59;;;;;;;6.33;3.17;;;18.60;99.90;;;;;;4843147;29;20945;-90
2023/09/01 11:56:25;;;;;;;3.50;2.33;;;18.60;99.90;;;;;;4843040;29;20507;-90
2023/09/01 11:58:55;;;;;;;5.10;3.20;;;18.60;99.90;;;;;;4843045;29;20201;-90
2023/09/01 12:01:23;;;;;;;3.03;2.73;;;18.70;99.90;;;;;;4842525;29;20185;-90
2023/09/01 12:03:51;;;;;;;3.13;2.80;;;18.80;99.90;;;;;;4843113;29;20734;-91
2023/09/01 12:06:18;;;;;;;3.80;2.83;;;18.80;99.90;;;;;;4843078;29;20403;-91
2023/09/01 12:08:45;;;;;;;5.50;3.47;;;18.80;99.90;;;;;;4843154;29;20802;-91
2023/09/01 12:11:16;;;;;;;4.07;2.53;;;18.90;99.90;;;;;;4842540;29;20529;-91
2023/09/01 12:13:44;;;;;;;3.77;3.13;;;18.90;99.90;;;;;;4844123;29;20777;-91
2023/09/01 12:16:20;;;;;;;5.17;2.67;;;19.00;99.90;;;;;;4849158;29;20405;-90
2023/09/01 12:18:46;;;;;;;4.23;2.77;;;19.00;99.90;;;;;;4846715;29;20456;-91
2023/09/01 12:21:12;;;;;;;2.80;2.57;;;19.10;99.90;;;;;;4846440;29;20393;-90
2023/09/01 12:23:40;;;;;;;3.40;2.67;;;19.30;99.90;;;;;;4846893;29;20422;-90
2023/09/01 12:26:06;;;;;;;5.63;3.20;;;19.40;99.90;;;;;;4846529;29;20500;-89
2023/09/01 12:28:34;;;;;;;5.07;2.87;;;19.50;99.90;;;;;;4846533;29;20543;-91
2023/09/01 12:31:01;;;;;;;3.47;2.80;;;19.60;99.90;;;;;;4846679;29;20496;-93
2023/09/01 12:33:27;;;;;;;3.70;2.70;;;19.50;99.90;;;;;;4847150;29;20431;-93
2023/09/01 12:35:53;;;;;;;3.70;2.70;;;19.60;99.90;;;;;;4847452;29;20397;-93
2023/09/01 12:38:19;;;;;;;4.97;2.70;;;19.70;99.90;;;;;;4848635;29;20181;-93
2023/09/01 12:40:45;;;;;;;6.13;3.30;;;19.90;99.90;;;;;;4846988;29;20414;-94
2023/09/01 12:43:11;;;;;;;3.73;2.60;;;20.00;99.90;;;;;;4850664;29;20907;-93
2023/09/01 12:45:37;;;;;;;7.80;2.70;;;20.00;99.90;;;;;;4855560;29;20396;-96
2023/09/01 12:48:03;;;;;;;3.27;2.50;;;20.00;99.90;;;;;;4849104;29;20589;-93